Date,TemperatureHighF,TemperatureAvgF,TemperatureLowF,DewpointHighF,DewpointAvgF,DewpointLowF,HumidityHigh,HumidityAvg,HumidityLow,PressureMaxIn,PressureMinIn,WindSpeedMaxMPH,WindSpeedAvgMPH,GustSpeedMaxMPH,PrecipitationSumIn
2013-9-1,78.8,71.6,68.7,73.3,69.8,67.9,99,94,81,29.96,29.87,7,1,17,0.17
2013-9-2,78.8,71.1,64.9,73.3,68.7,64.3,100,93,76,30.01,29.90,10,0,19,0.00
2013-9-3,77.9,70.7,63.5,72.1,67.4,62.9,100,90,68,30.05,29.89,2,0,11,0.42
2013-9-4,79.5,68.9,61.1,69.9,64.8,60.8,100,88,63,30.17,30.04,3,0,10,0.00
2013-9-5,79.8,69.2,61.6,71.2,65.0,61.0,100,88,60,30.20,30.13,5,0,14,0.00
2013-9-6,79.5,68.4,59.3,68.4,63.8,58.4,99,87,64,30.22,30.12,2,0,8,0.00
2013-9-7,78.5,69.7,61.3,69.9,65.2,60.4,100,86,69,30.18,30.06,9,1,10,0.00
2013-9-8,77.5,70.7,64.8,69.8,66.2,63.4,99,86,70,30.09,30.00,8,0,8,0.00
2013-9-9,77.8,67.1,61.6,71.7,65.6,60.8,100,95,78,30.21,30.07,20,0,20,0.88
2013-9-10,80.6,68.8,62.6,72.4,66.6,62.3,100,93,71,30.31,30.21,12,0,12,0.10
2013-9-11,80.0,69.6,61.6,71.1,66.4,61.0,100,90,73,30.31,30.17,14,0,14,0.01
2013-9-12,72.6,68.3,64.6,71.5,67.3,64.3,100,97,92,30.17,29.97,15,0,15,0.81
2013-9-13,70.7,65.2,56.7,67.2,60.7,52.1,100,86,63,29.99,29.91,10,1,14,0.39
2013-9-14,71.5,59.1,48.7,63.8,55.2,47.9,99,88,68,30.18,29.98,4,0,4,0.00
2013-9-15,73.9,62.1,53.4,63.9,58.1,52.4,99,88,64,30.26,30.18,8,0,8,0.00
2013-9-16,75.9,65.8,58.8,64.4,60.5,57.0,100,85,54,30.24,30.16,8,0,8,0.00
2013-9-17,69.2,64.4,60.9,64.4,61.4,58.5,98,90,81,30.27,30.19,13,1,13,0.00
2013-9-18,66.1,62.1,59.2,62.1,59.4,56.8,97,91,83,30.30,30.21,12,0,12,0.00
2013-9-19,76.4,65.5,58.0,68.7,62.6,57.4,99,91,72,30.27,30.14,0,0,0,0.00
2013-9-20,76.4,67.6,60.0,66.6,63.4,59.4,100,88,68,30.16,29.98,17,2,17,0.00
2013-9-21,67.9,64.1,59.8,65.4,62.8,59.1,99,96,88,29.99,29.75,15,2,15,2.17
2013-9-22,68.7,59.7,52.7,62.5,56.6,52.2,99,90,72,29.99,29.83,7,0,7,0.00
2013-9-23,71.7,60.4,52.8,64.4,57.6,52.5,100,91,71,30.11,29.99,10,0,10,0.01
2013-9-24,69.4,60.7,53.3,65.0,58.9,52.5,99,94,84,30.12,29.98,14,1,14,0.00
2013-9-25,63.1,61.5,60.8,62.3,61.3,60.5,100,99,97,29.98,29.88,8,0,8,1.86
2013-9-26,69.2,62.8,58.1,65.4,61.3,57.1,100,95,77,30.10,29.93,8,1,8,0.05
2013-9-27,70.2,60.4,54.0,63.3,57.7,53.7,100,92,68,30.23,30.09,4,0,4,0.00
2013-9-28,68.5,59.7,52.7,62.7,57.1,51.9,97,91,71,30.27,30.17,2,0,2,0.00
2013-9-29,64.9,59.2,55.2,59.3,56.5,54.1,97,91,79,30.22,30.09,7,0,7,0.00
2013-9-30,67.2,59.6,52.8,61.4,56.7,52.3,99,90,77,30.17,30.08,12,1,12,0.00